sensor_id;sensor_type;location;lat;lon;timestamp;pressure;altitude;pressure_sealevel;temperature;humidity
67015;BME280;1033;52.560;13.374;2023-06-19T00:02:07;100832.66;;;18.73;75.56
67015;BME280;1033;52.560;13.374;2023-06-19T00:04:36;100834.81;;;18.71;75.14
67015;BME280;1033;52.560;13.374;2023-06-19T00:07:05;100832.44;;;18.79;75.20
67015;BME280;1033;52.560;13.374;2023-06-19T00:09:34;100832.31;;;18.91;75.05
67015;BME280;1033;52.560;13.374;2023-06-19T00:12:04;100830.13;;;18.93;75.21
67015;BME280;1033;52.560;13.374;2023-06-19T00:14:33;100827.91;;;18.90;74.97
67015;BME280;1033;52.560;13.374;2023-06-19T00:17:05;100829.25;;;18.87;75.11
67015;BME280;1033;52.560;13.374;2023-06-19T00:19:34;100825.75;;;18.92;74.80
67015;BME280;1033;52.560;13.374;2023-06-19T00:22:04;100824.78;;;19.08;74.22
67015;BME280;1033;52.560;13.374;2023-06-19T00:24:33;100829.28;;;19.19;73.17
67015;BME280;1033;52.560;13.374;2023-06-19T00:27:03;100833.38;;;19.17;73.44
67015;BME280;1033;52.560;13.374;2023-06-19T00:29:33;100837.06;;;19.32;72.19
67015;BME280;1033;52.560;13.374;2023-06-19T00:32:04;100834.34;;;19.32;72.26
67015;BME280;1033;52.560;13.374;2023-06-19T00:34:34;100840.84;;;19.53;71.84
67015;BME280;1033;52.560;13.374;2023-06-19T00:37:05;100828.50;;;19.50;71.94
67015;BME280;1033;52.560;13.374;2023-06-19T00:39:37;100829.78;;;19.75;70.79
67015;BME280;1033;52.560;13.374;2023-06-19T00:42:07;100837.44;;;19.73;70.87
67015;BME280;1033;52.560;13.374;2023-06-19T00:44:37;100831.94;;;19.73;70.86
67015;BME280;1033;52.560;13.374;2023-06-19T00:47:07;100828.94;;;19.74;70.57
67015;BME280;1033;52.560;13.374;2023-06-19T00:49:36;100828.91;;;19.69;70.54
67015;BME280;1033;52.560;13.374;2023-06-19T00:52:06;100833.59;;;19.74;70.70
67015;BME280;1033;52.560;13.374;2023-06-19T00:54:36;100828.03;;;19.64;71.19
67015;BME280;1033;52.560;13.374;2023-06-19T00:57:05;100840.16;;;19.68;71.56
67015;BME280;1033;52.560;13.374;2023-06-19T00:59:35;100834.13;;;19.71;71.23
67015;BME280;1033;52.560;13.374;2023-06-19T01:02:06;100835.81;;;19.77;71.21
67015;BME280;1033;52.560;13.374;2023-06-19T01:04:36;100837.47;;;19.78;70.78
67015;BME280;1033;52.560;13.374;2023-06-19T01:07:09;100825.97;;;19.86;70.35
67015;BME280;1033;52.560;13.374;2023-06-19T01:09:44;100822.44;;;19.90;70.51
67015;BME280;1033;52.560;13.374;2023-06-19T01:12:18;100819.91;;;19.79;70.79
67015;BME280;1033;52.560;13.374;2023-06-19T01:14:54;100816.25;;;19.68;70.65
67015;BME280;1033;52.560;13.374;2023-06-19T01:17:28;100818.84;;;19.80;70.74
67015;BME280;1033;52.560;13.374;2023-06-19T01:19:58;100817.13;;;19.74;70.51
67015;BME280;1033;52.560;13.374;2023-06-19T01:22:29;100812.16;;;19.71;71.00
67015;BME280;1033;52.560;13.374;2023-06-19T01:25:01;100820.88;;;19.63;71.50
67015;BME280;1033;52.560;13.374;2023-06-19T01:27:31;100818.66;;;19.55;71.64
67015;BME280;1033;52.560;13.374;2023-06-19T01:30:03;100814.28;;;19.32;72.04
67015;BME280;1033;52.560;13.374;2023-06-19T01:32:41;100807.91;;;19.21;73.07
67015;BME280;1033;52.560;13.374;2023-06-19T01:35:17;100808.59;;;19.38;72.22
67015;BME280;1033;52.560;13.374;2023-06-19T01:37:50;100803.94;;;19.39;72.25
67015;BME280;1033;52.560;13.374;2023-06-19T01:40:23;100802.03;;;19.39;72.39
67015;BME280;1033;52.560;13.374;2023-06-19T01:42:54;100801.28;;;19.44;72.75
67015;BME280;1033;52.560;13.374;2023-06-19T01:45:23;100797.53;;;19.55;71.97
67015;BME280;1033;52.560;13.374;2023-06-19T01:47:53;100798.00;;;19.47;72.09
67015;BME280;1033;52.560;13.374;2023-06-19T01:50:23;100790.38;;;19.54;71.92
67015;BME280;1033;52.560;13.374;2023-06-19T01:52:55;100793.13;;;19.54;71.89
67015;BME280;1033;52.560;13.374;2023-06-19T01:55:25;100787.28;;;19.45;71.96
67015;BME280;1033;52.560;13.374;2023-06-19T01:57:55;100782.88;;;19.44;71.98
67015;BME280;1033;52.560;13.374;2023-06-19T02:00:24;100792.03;;;19.55;71.45
67015;BME280;1033;52.560;13.374;2023-06-19T02:02:57;100788.50;;;19.60;71.60
67015;BME280;1033;52.560;13.374;2023-06-19T02:05:31;100791.34;;;19.75;70.69
67015;BME280;1033;52.560;13.374;2023-06-19T02:08:03;100791.03;;;19.71;70.41
67015;BME280;1033;52.560;13.374;2023-06-19T02:10:35;100781.88;;;19.61;71.22
67015;BME280;1033;52.560;13.374;2023-06-19T02:13:04;100787.38;;;19.56;71.22
67015;BME280;1033;52.560;13.374;2023-06-19T02:15:33;100783.50;;;19.57;71.19
67015;BME280;1033;52.560;13.374;2023-06-19T02:18:03;100773.66;;;19.61;70.57
67015;BME280;1033;52.560;13.374;2023-06-19T02:20:33;100775.78;;;19.48;71.14
67015;BME280;1033;52.560;13.374;2023-06-19T02:23:03;100764.94;;;19.37;71.69
67015;BME280;1033;52.560;13.374;2023-06-19T02:25:32;100767.69;;;19.37;71.67
67015;BME280;1033;52.560;13.374;2023-06-19T02:28:03;100765.53;;;19.39;71.39
67015;BME280;1033;52.560;13.374;2023-06-19T02:30:32;100768.09;;;19.45;71.03
67015;BME280;1033;52.560;13.374;2023-06-19T02:33:02;100767.09;;;19.67;70.89
67015;BME280;1033;52.560;13.374;2023-06-19T02:35:31;100763.50;;;19.61;70.91
67015;BME280;1033;52.560;13.374;2023-06-19T02:37:59;100768.91;;;19.51;70.97
67015;BME280;1033;52.560;13.374;2023-06-19T02:40:30;100762.16;;;19.64;70.73
67015;BME280;1033;52.560;13.374;2023-06-19T02:42:59;100763.38;;;19.83;69.73
67015;BME280;1033;52.560;13.374;2023-06-19T02:45:28;100759.53;;;19.84;69.93
67015;BME280;1033;52.560;13.374;2023-06-19T02:47:57;100765.44;;;19.66;69.63
67015;BME280;1033;52.560;13.374;2023-06-19T02:50:26;100761.06;;;19.65;69.84
67015;BME280;1033;52.560;13.374;2023-06-19T02:52:55;100759.97;;;19.66;70.61
67015;BME280;1033;52.560;13.374;2023-06-19T02:55:23;100760.00;;;19.71;69.79
67015;BME280;1033;52.560;13.374;2023-06-19T02:57:54;100751.88;;;19.91;69.06
67015;BME280;1033;52.560;13.374;2023-06-19T03:00:23;100754.63;;;19.91;68.85
67015;BME280;1033;52.560;13.374;2023-06-19T03:02:52;100756.28;;;19.92;69.17
67015;BME280;1033;52.560;13.374;2023-06-19T03:05:21;100758.78;;;19.99;68.93
67015;BME280;1033;52.560;13.374;2023-06-19T03:07:50;100757.34;;;19.91;69.10
67015;BME280;1033;52.560;13.374;2023-06-19T03:10:19;100750.97;;;19.80;68.81
67015;BME280;1033;52.560;13.374;2023-06-19T03:12:49;100751.91;;;19.96;68.66
67015;BME280;1033;52.560;13.374;2023-06-19T03:15:19;100745.88;;;19.99;67.72
67015;BME280;1033;52.560;13.374;2023-06-19T03:17:50;100751.88;;;19.91;68.34
67015;BME280;1033;52.560;13.374;2023-06-19T03:20:19;100754.63;;;19.96;68.62
67015;BME280;1033;52.560;13.374;2023-06-19T03:22:55;100771.22;;;20.16;68.18
67015;BME280;1033;52.560;13.374;2023-06-19T03:25:25;100770.22;;;20.32;67.70
67015;BME280;1033;52.560;13.374;2023-06-19T03:27:54;100775.75;;;20.43;66.95
67015;BME280;1033;52.560;13.374;2023-06-19T03:30:24;100775.78;;;20.63;66.16
67015;BME280;1033;52.560;13.374;2023-06-19T03:32:54;100776.41;;;20.90;64.59
67015;BME280;1033;52.560;13.374;2023-06-19T03:35:41;100771.44;;;21.02;64.51
67015;BME280;1033;52.560;13.374;2023-06-19T03:38:20;100775.88;;;21.54;62.08
67015;BME280;1033;52.560;13.374;2023-06-19T03:40:50;100781.81;;;22.12;59.90
67015;BME280;1033;52.560;13.374;2023-06-19T03:43:19;100784.88;;;22.05;59.65
67015;BME280;1033;52.560;13.374;2023-06-19T03:45:49;100785.47;;;21.82;60.94
67015;BME280;1033;52.560;13.374;2023-06-19T03:48:18;100784.06;;;21.84;60.67
67015;BME280;1033;52.560;13.374;2023-06-19T03:50:47;100788.16;;;22.17;59.61
67015;BME280;1033;52.560;13.374;2023-06-19T03:53:16;100784.84;;;23.76;54.63
67015;BME280;1033;52.560;13.374;2023-06-19T03:55:46;100793.38;;;24.69;51.19
67015;BME280;1033;52.560;13.374;2023-06-19T03:58:15;100791.88;;;24.40;51.40
67015;BME280;1033;52.560;13.374;2023-06-19T04:00:44;100791.28;;;23.37;54.15
67015;BME280;1033;52.560;13.374;2023-06-19T04:03:15;100785.97;;;22.63;56.64
67015;BME280;1033;52.560;13.374;2023-06-19T04:05:45;100772.50;;;21.92;58.72
67015;BME280;1033;52.560;13.374;2023-06-19T04:08:15;100774.75;;;21.45;60.24
67015;BME280;1033;52.560;13.374;2023-06-19T04:10:44;100772.03;;;21.09;61.84
67015;BME280;1033;52.560;13.374;2023-06-19T04:13:13;100767.06;;;20.91;62.50
67015;BME280;1033;52.560;13.374;2023-06-19T04:15:44;100769.47;;;20.72;64.17
67015;BME280;1033;52.560;13.374;2023-06-19T04:18:19;100765.63;;;20.63;63.26
67015;BME280;1033;52.560;13.374;2023-06-19T04:20:48;100762.59;;;20.55;64.04
67015;BME280;1033;52.560;13.374;2023-06-19T04:23:17;100759.00;;;20.49;64.57
67015;BME280;1033;52.560;13.374;2023-06-19T04:25:46;100762.59;;;20.65;63.83
67015;BME280;1033;52.560;13.374;2023-06-19T04:28:15;100757.38;;;20.68;63.88
67015;BME280;1033;52.560;13.374;2023-06-19T04:30:44;100763.41;;;20.55;64.08
67015;BME280;1033;52.560;13.374;2023-06-19T04:33:13;100770.25;;;20.53;64.55
67015;BME280;1033;52.560;13.374;2023-06-19T04:35:43;100785.13;;;20.52;64.65
67015;BME280;1033;52.560;13.374;2023-06-19T04:38:12;100784.06;;;20.73;64.47
67015;BME280;1033;52.560;13.374;2023-06-19T04:40:42;100783.78;;;20.64;64.70
67015;BME280;1033;52.560;13.374;2023-06-19T04:43:11;100782.44;;;20.72;64.41
67015;BME280;1033;52.560;13.374;2023-06-19T04:45:40;100790.94;;;20.65;64.26
67015;BME280;1033;52.560;13.374;2023-06-19T04:48:10;100792.84;;;20.60;65.33
67015;BME280;1033;52.560;13.374;2023-06-19T04:50:39;100784.34;;;20.71;65.07
67015;BME280;1033;52.560;13.374;2023-06-19T04:53:09;100782.41;;;20.67;64.43
67015;BME280;1033;52.560;13.374;2023-06-19T04:55:39;100782.13;;;20.68;64.77
67015;BME280;1033;52.560;13.374;2023-06-19T04:58:08;100795.34;;;20.71;65.56
67015;BME280;1033;52.560;13.374;2023-06-19T05:00:37;100795.84;;;20.58;65.00
67015;BME280;1033;52.560;13.374;2023-06-19T05:03:06;100801.63;;;20.52;65.59
67015;BME280;1033;52.560;13.374;2023-06-19T05:05:35;100796.09;;;20.47;65.80
67015;BME280;1033;52.560;13.374;2023-06-19T05:08:04;100799.72;;;20.57;65.91
67015;BME280;1033;52.560;13.374;2023-06-19T05:10:35;100806.00;;;20.58;65.07
67015;BME280;1033;52.560;13.374;2023-06-19T05:13:04;100799.97;;;20.51;65.61
67015;BME280;1033;52.560;13.374;2023-06-19T05:15:33;100802.72;;;20.51;66.15
67015;BME280;1033;52.560;13.374;2023-06-19T05:18:02;100798.88;;;20.57;65.45
67015;BME280;1033;52.560;13.374;2023-06-19T05:20:31;100805.47;;;20.51;65.74
67015;BME280;1033;52.560;13.374;2023-06-19T05:23:00;100806.00;;;20.48;66.10
67015;BME280;1033;52.560;13.374;2023-06-19T05:25:29;100813.72;;;20.56;65.46
67015;BME280;1033;52.560;13.374;2023-06-19T05:27:59;100811.53;;;20.63;65.39
67015;BME280;1033;52.560;13.374;2023-06-19T05:30:32;100812.66;;;20.67;65.14
67015;BME280;1033;52.560;13.374;2023-06-19T05:33:02;100800.50;;;20.58;65.75
67015;BME280;1033;52.560;13.374;2023-06-19T05:35:31;100804.94;;;20.64;65.57
67015;BME280;1033;52.560;13.374;2023-06-19T05:38:00;100807.69;;;20.69;65.45
67015;BME280;1033;52.560;13.374;2023-06-19T05:40:30;100813.44;;;20.62;65.46
67015;BME280;1033;52.560;13.374;2023-06-19T05:43:01;100806.59;;;20.65;65.38
67015;BME280;1033;52.560;13.374;2023-06-19T05:45:30;100804.69;;;20.70;65.03
67015;BME280;1033;52.560;13.374;2023-06-19T05:47:59;100804.69;;;20.70;65.38
67015;BME280;1033;52.560;13.374;2023-06-19T05:50:28;100810.47;;;20.79;64.95
67015;BME280;1033;52.560;13.374;2023-06-19T05:52:58;100818.75;;;20.89;64.49
67015;BME280;1033;52.560;13.374;2023-06-19T05:55:27;100808.03;;;21.03;64.18
67015;BME280;1033;52.560;13.374;2023-06-19T05:57:56;100810.59;;;21.19;63.65
67015;BME280;1033;52.560;13.374;2023-06-19T06:00:26;100815.53;;;21.22;63.90
67015;BME280;1033;52.560;13.374;2023-06-19T06:02:57;100819.06;;;21.08;64.66
67015;BME280;1033;52.560;13.374;2023-06-19T06:05:28;100806.69;;;21.05;65.78
67015;BME280;1033;52.560;13.374;2023-06-19T06:07:57;100808.03;;;20.98;66.27
67015;BME280;1033;52.560;13.374;2023-06-19T06:10:27;100794.84;;;21.00;66.12
67015;BME280;1033;52.560;13.374;2023-06-19T06:12:56;100797.28;;;20.96;66.77
67015;BME280;1033;52.560;13.374;2023-06-19T06:15:26;100793.19;;;20.94;66.46
67015;BME280;1033;52.560;13.374;2023-06-19T06:17:55;100794.06;;;21.14;65.44
67015;BME280;1033;52.560;13.374;2023-06-19T06:20:25;100795.44;;;21.27;64.89
67015;BME280;1033;52.560;13.374;2023-06-19T06:22:54;100787.44;;;21.36;64.28
67015;BME280;1033;52.560;13.374;2023-06-19T06:25:23;100789.09;;;21.42;64.48
67015;BME280;1033;52.560;13.374;2023-06-19T06:27:52;100799.53;;;21.55;63.40
67015;BME280;1033;52.560;13.374;2023-06-19T06:30:21;100799.81;;;21.63;63.30
67015;BME280;1033;52.560;13.374;2023-06-19T06:32:53;100802.84;;;21.72;62.58
67015;BME280;1033;52.560;13.374;2023-06-19T06:35:22;100800.63;;;21.69;62.82
67015;BME280;1033;52.560;13.374;2023-06-19T06:37:51;100798.69;;;21.75;62.30
67015;BME280;1033;52.560;13.374;2023-06-19T06:40:20;100798.44;;;21.71;63.11
67015;BME280;1033;52.560;13.374;2023-06-19T06:42:50;100792.34;;;21.74;62.86
67015;BME280;1033;52.560;13.374;2023-06-19T06:45:21;100804.19;;;21.95;62.14
67015;BME280;1033;52.560;13.374;2023-06-19T06:47:54;100806.66;;;22.06;62.16
67015;BME280;1033;52.560;13.374;2023-06-19T06:50:23;100805.41;;;22.38;61.28
67015;BME280;1033;52.560;13.374;2023-06-19T06:52:52;100813.13;;;22.41;60.48
67015;BME280;1033;52.560;13.374;2023-06-19T06:55:21;100811.44;;;22.50;59.65
67015;BME280;1033;52.560;13.374;2023-06-19T06:57:50;100817.53;;;22.37;59.38
67015;BME280;1033;52.560;13.374;2023-06-19T07:00:20;100816.91;;;22.60;59.59
67015;BME280;1033;52.560;13.374;2023-06-19T07:02:49;100820.69;;;22.79;59.23
67015;BME280;1033;52.560;13.374;2023-06-19T07:05:20;100820.59;;;22.94;58.58
67015;BME280;1033;52.560;13.374;2023-06-19T07:07:49;100829.13;;;22.98;58.13
67015;BME280;1033;52.560;13.374;2023-06-19T07:10:18;100823.69;;;23.22;57.48
67015;BME280;1033;52.560;13.374;2023-06-19T07:12:48;100827.50;;;23.31;56.86
67015;BME280;1033;52.560;13.374;2023-06-19T07:15:17;100830.25;;;23.31;56.92
67015;BME280;1033;52.560;13.374;2023-06-19T07:17:47;100825.13;;;23.53;55.86
67015;BME280;1033;52.560;13.374;2023-06-19T07:20:16;100823.03;;;23.35;56.68
67015;BME280;1033;52.560;13.374;2023-06-19T07:22:46;100819.75;;;23.33;56.53
67015;BME280;1033;52.560;13.374;2023-06-19T07:25:16;100815.34;;;23.32;56.92
67015;BME280;1033;52.560;13.374;2023-06-19T07:27:45;100820.06;;;23.26;56.49
67015;BME280;1033;52.560;13.374;2023-06-19T07:30:14;100820.78;;;23.47;56.69
67015;BME280;1033;52.560;13.374;2023-06-19T07:32:43;100826.03;;;23.72;55.59
67015;BME280;1033;52.560;13.374;2023-06-19T07:35:12;100830.69;;;23.77;55.16
67015;BME280;1033;52.560;13.374;2023-06-19T07:37:41;100830.41;;;23.50;55.33
67015;BME280;1033;52.560;13.374;2023-06-19T07:40:12;100832.78;;;23.61;55.55
67015;BME280;1033;52.560;13.374;2023-06-19T07:42:41;100834.69;;;23.95;54.87
67015;BME280;1033;52.560;13.374;2023-06-19T07:45:12;100836.72;;;24.08;54.65
67015;BME280;1033;52.560;13.374;2023-06-19T07:47:42;100836.69;;;24.13;53.88
67015;BME280;1033;52.560;13.374;2023-06-19T07:50:12;100838.84;;;24.16;54.12
67015;BME280;1033;52.560;13.374;2023-06-19T07:52:42;100845.22;;;24.16;54.75
67015;BME280;1033;52.560;13.374;2023-06-19T07:55:12;100844.78;;;24.33;53.34
67015;BME280;1033;52.560;13.374;2023-06-19T07:57:41;100842.28;;;24.32;53.85
67015;BME280;1033;52.560;13.374;2023-06-19T08:00:11;100844.78;;;24.33;53.77
67015;BME280;1033;52.560;13.374;2023-06-19T08:02:41;100839.84;;;24.30;54.11
67015;BME280;1033;52.560;13.374;2023-06-19T08:05:10;100837.66;;;24.27;53.90
67015;BME280;1033;52.560;13.374;2023-06-19T08:07:40;100844.97;;;24.13;53.53
67015;BME280;1033;52.560;13.374;2023-06-19T08:10:10;100844.91;;;23.94;54.69
67015;BME280;1033;52.560;13.374;2023-06-19T08:12:42;100840.88;;;24.10;54.53
67015;BME280;1033;52.560;13.374;2023-06-19T08:15:11;100843.91;;;24.09;54.35
67015;BME280;1033;52.560;13.374;2023-06-19T08:17:42;100839.91;;;24.25;53.85
67015;BME280;1033;52.560;13.374;2023-06-19T08:20:12;100842.50;;;24.11;53.67
67015;BME280;1033;52.560;13.374;2023-06-19T08:22:41;100848.28;;;24.15;54.31
67015;BME280;1033;52.560;13.374;2023-06-19T08:25:11;100848.28;;;24.15;54.15
67015;BME280;1033;52.560;13.374;2023-06-19T08:27:40;100850.25;;;24.38;53.41
67015;BME280;1033;52.560;13.374;2023-06-19T08:30:09;100842.91;;;24.29;53.54
67015;BME280;1033;52.560;13.374;2023-06-19T08:32:38;100852.63;;;24.45;53.57
67015;BME280;1033;52.560;13.374;2023-06-19T08:35:08;100851.34;;;24.37;53.48
67015;BME280;1033;52.560;13.374;2023-06-19T08:37:37;100843.34;;;24.36;53.57
67015;BME280;1033;52.560;13.374;2023-06-19T08:40:07;100845.88;;;24.32;53.82
67015;BME280;1033;52.560;13.374;2023-06-19T08:42:39;100843.22;;;24.46;55.24
67015;BME280;1033;52.560;13.374;2023-06-19T08:45:10;100847.66;;;24.47;54.19
67015;BME280;1033;52.560;13.374;2023-06-19T08:47:41;100839.13;;;24.43;53.33
67015;BME280;1033;52.560;13.374;2023-06-19T08:50:10;100843.47;;;24.49;53.68
67015;BME280;1033;52.560;13.374;2023-06-19T08:52:39;100829.97;;;24.66;53.49
67015;BME280;1033;52.560;13.374;2023-06-19T08:55:08;100833.25;;;24.68;53.16
67015;BME280;1033;52.560;13.374;2023-06-19T08:57:41;100827.94;;;24.53;53.49
67015;BME280;1033;52.560;13.374;2023-06-19T09:00:11;100838.06;;;24.39;53.95
67015;BME280;1033;52.560;13.374;2023-06-19T09:02:41;100832.28;;;24.36;55.13
67015;BME280;1033;52.560;13.374;2023-06-19T09:05:14;100827.94;;;24.06;55.95
67015;BME280;1033;52.560;13.374;2023-06-19T09:07:44;100832.38;;;24.02;56.64
67015;BME280;1033;52.560;13.374;2023-06-19T09:10:18;100833.91;;;24.13;55.78
67015;BME280;1033;52.560;13.374;2023-06-19T09:12:59;100837.34;;;24.05;56.27
67015;BME280;1033;52.560;13.374;2023-06-19T09:15:29;100836.22;;;24.06;55.79
67015;BME280;1033;52.560;13.374;2023-06-19T09:18:07;100848.28;;;24.15;56.09
67015;BME280;1033;52.560;13.374;2023-06-19T09:20:38;100846.59;;;24.19;55.76
67015;BME280;1033;52.560;13.374;2023-06-19T09:23:12;100850.69;;;24.45;55.13
67015;BME280;1033;52.560;13.374;2023-06-19T09:25:45;100850.38;;;24.71;54.42
67015;BME280;1033;52.560;13.374;2023-06-19T09:28:20;100851.28;;;24.85;53.61
67015;BME280;1033;52.560;13.374;2023-06-19T09:30:53;100845.34;;;24.96;53.35
67015;BME280;1033;52.560;13.374;2023-06-19T09:33:23;100836.50;;;25.13;53.10
67015;BME280;1033;52.560;13.374;2023-06-19T09:35:54;100843.69;;;25.14;53.34
67015;BME280;1033;52.560;13.374;2023-06-19T09:38:25;100842.66;;;25.10;53.62
67015;BME280;1033;52.560;13.374;2023-06-19T09:40:56;100844.31;;;25.11;53.79
67015;BME280;1033;52.560;13.374;2023-06-19T09:43:33;100843.34;;;25.02;54.16
67015;BME280;1033;52.560;13.374;2023-06-19T09:46:03;100848.91;;;25.34;53.73
67015;BME280;1033;52.560;13.374;2023-06-19T09:48:34;100846.63;;;25.74;52.12
67015;BME280;1033;52.560;13.374;2023-06-19T09:51:12;100843.56;;;25.89;52.02
67015;BME280;1033;52.560;13.374;2023-06-19T09:53:45;100846.66;;;26.15;51.38
67015;BME280;1033;52.560;13.374;2023-06-19T09:56:16;100848.06;;;26.31;50.79
67015;BME280;1033;52.560;13.374;2023-06-19T09:58:53;100844.97;;;26.46;50.43
67015;BME280;1033;52.560;13.374;2023-06-19T10:01:24;100844.25;;;26.41;49.72
67015;BME280;1033;52.560;13.374;2023-06-19T10:04:02;100838.31;;;26.33;49.15
67015;BME280;1033;52.560;13.374;2023-06-19T10:06:32;100843.22;;;26.36;49.25
67015;BME280;1033;52.560;13.374;2023-06-19T10:09:08;100833.13;;;26.54;49.83
67015;BME280;1033;52.560;13.374;2023-06-19T10:11:47;100833.56;;;26.48;49.33
67015;BME280;1033;52.560;13.374;2023-06-19T10:14:21;100817.69;;;26.89;48.13
67015;BME280;1033;52.560;13.374;2023-06-19T10:16:50;100817.97;;;26.38;49.19
67015;BME280;1033;52.560;13.374;2023-06-19T10:19:21;100821.25;;;26.26;49.57
67015;BME280;1033;52.560;13.374;2023-06-19T10:21:52;100813.84;;;26.35;49.60
67015;BME280;1033;52.560;13.374;2023-06-19T10:24:25;100810.41;;;26.66;48.83
67015;BME280;1033;52.560;13.374;2023-06-19T10:26:58;100811.50;;;26.92;47.97
67015;BME280;1033;52.560;13.374;2023-06-19T10:29:38;100796.06;;;27.22;47.84
67015;BME280;1033;52.560;13.374;2023-06-19T10:32:15;100802.19;;;27.33;47.63
67015;BME280;1033;52.560;13.374;2023-06-19T10:34:46;100805.34;;;27.40;46.92
67015;BME280;1033;52.560;13.374;2023-06-19T10:37:16;100798.41;;;27.29;46.76
67015;BME280;1033;52.560;13.374;2023-06-19T10:39:45;100790.97;;;27.15;46.91
67015;BME280;1033;52.560;13.374;2023-06-19T10:42:14;100792.81;;;27.06;47.48
67015;BME280;1033;52.560;13.374;2023-06-19T10:44:45;100781.72;;;27.06;47.92
67015;BME280;1033;52.560;13.374;2023-06-19T10:47:15;100775.59;;;27.18;47.58
67015;BME280;1033;52.560;13.374;2023-06-19T10:49:44;100781.03;;;27.01;48.20
67015;BME280;1033;52.560;13.374;2023-06-19T10:52:14;100769.41;;;27.21;47.03
67015;BME280;1033;52.560;13.374;2023-06-19T10:54:43;100762.84;;;27.17;47.51
67015;BME280;1033;52.560;13.374;2023-06-19T10:57:12;100768.88;;;27.10;48.13
67015;BME280;1033;52.560;13.374;2023-06-19T10:59:41;100756.84;;;27.23;47.94
67015;BME280;1033;52.560;13.374;2023-06-19T11:02:12;100759.00;;;27.04;47.72
67015;BME280;1033;52.560;13.374;2023-06-19T11:04:42;100761.66;;;27.09;47.67
67015;BME280;1033;52.560;13.374;2023-06-19T11:07:11;100755.84;;;27.19;47.08
67015;BME280;1033;52.560;13.374;2023-06-19T11:09:40;100758.50;;;27.02;47.94
67015;BME280;1033;52.560;13.374;2023-06-19T11:12:12;100745.78;;;27.32;47.26
67015;BME280;1033;52.560;13.374;2023-06-19T11:14:48;100754.66;;;27.34;47.18
67015;BME280;1033;52.560;13.374;2023-06-19T11:17:18;100752.56;;;27.71;46.48
67015;BME280;1033;52.560;13.374;2023-06-19T11:19:50;100762.00;;;27.61;46.03
67015;BME280;1033;52.560;13.374;2023-06-19T11:22:19;100766.66;;;27.74;46.61
67015;BME280;1033;52.560;13.374;2023-06-19T11:24:48;100759.91;;;27.66;45.34
67015;BME280;1033;52.560;13.374;2023-06-19T11:27:20;100756.25;;;27.88;44.75
67015;BME280;1033;52.560;13.374;2023-06-19T11:29:55;100768.25;;;27.97;44.86
67015;BME280;1033;52.560;13.374;2023-06-19T11:32:33;100766.63;;;28.05;45.04
67015;BME280;1033;52.560;13.374;2023-06-19T11:35:09;100766.03;;;28.17;45.08
67015;BME280;1033;52.560;13.374;2023-06-19T11:37:42;100764.19;;;28.77;43.90
67015;BME280;1033;52.560;13.374;2023-06-19T11:40:12;100769.59;;;29.34;42.68
67015;BME280;1033;52.560;13.374;2023-06-19T11:42:47;100764.97;;;30.02;41.57
67015;BME280;1033;52.560;13.374;2023-06-19T11:45:17;100765.47;;;30.04;41.11
67015;BME280;1033;52.560;13.374;2023-06-19T11:47:49;100764.00;;;30.06;39.98
67015;BME280;1033;52.560;13.374;2023-06-19T11:50:19;100760.59;;;29.84;40.69
67015;BME280;1033;52.560;13.374;2023-06-19T11:52:52;100761.56;;;29.88;41.17
67015;BME280;1033;52.560;13.374;2023-06-19T11:55:21;100765.31;;;29.45;41.16
67015;BME280;1033;52.560;13.374;2023-06-19T11:57:53;100764.66;;;29.48;41.38
67015;BME280;1033;52.560;13.374;2023-06-19T12:00:22;100766.91;;;29.63;40.62
67015;BME280;1033;52.560;13.374;2023-06-19T12:02:55;100775.44;;;29.67;41.25
67015;BME280;1033;52.560;13.374;2023-06-19T12:05:26;100776.00;;;29.34;41.46
67015;BME280;1033;52.560;13.374;2023-06-19T12:07:56;100757.47;;;28.70;41.81
67015;BME280;1033;52.560;13.374;2023-06-19T12:10:25;100762.69;;;28.54;42.36
67015;BME280;1033;52.560;13.374;2023-06-19T12:12:54;100758.53;;;28.17;42.74
67015;BME280;1033;52.560;13.374;2023-06-19T12:15:24;100762.66;;;28.37;43.15
67015;BME280;1033;52.560;13.374;2023-06-19T12:17:54;100756.13;;;28.67;41.33
67015;BME280;1033;52.560;13.374;2023-06-19T12:20:26;100757.78;;;28.68;41.59
67015;BME280;1033;52.560;13.374;2023-06-19T12:22:55;100751.22;;;29.16;40.84
67015;BME280;1033;52.560;13.374;2023-06-19T12:25:24;100750.16;;;29.63;39.93
67015;BME280;1033;52.560;13.374;2023-06-19T12:27:53;100750.81;;;30.15;38.10
67015;BME280;1033;52.560;13.374;2023-06-19T12:30:22;100749.59;;;30.25;38.51
67015;BME280;1033;52.560;13.374;2023-06-19T12:32:54;100746.53;;;30.47;37.02
67015;BME280;1033;52.560;13.374;2023-06-19T12:35:24;100748.16;;;30.19;37.71
67015;BME280;1033;52.560;13.374;2023-06-19T12:37:53;100734.09;;;30.07;38.20
67015;BME280;1033;52.560;13.374;2023-06-19T12:40:22;100745.72;;;30.38;37.98
67015;BME280;1033;52.560;13.374;2023-06-19T12:42:52;100744.91;;;30.38;36.68
67015;BME280;1033;52.560;13.374;2023-06-19T12:45:21;100740.09;;;30.17;36.67
67015;BME280;1033;52.560;13.374;2023-06-19T12:47:50;100740.94;;;30.47;36.02
67015;BME280;1033;52.560;13.374;2023-06-19T12:50:27;100744.47;;;30.56;37.32
67015;BME280;1033;52.560;13.374;2023-06-19T13:09:48;100729.63;;;29.76;36.19
67015;BME280;1033;52.560;13.374;2023-06-19T13:25:39;100726.59;;;30.28;36.85
67015;BME280;1033;52.560;13.374;2023-06-19T13:28:08;100723.56;;;30.12;37.29
67015;BME280;1033;52.560;13.374;2023-06-19T13:30:37;100719.22;;;30.74;37.31
67015;BME280;1033;52.560;13.374;2023-06-19T13:33:06;100714.38;;;30.83;36.60
67015;BME280;1033;52.560;13.374;2023-06-19T13:35:36;100715.72;;;30.35;37.14
67015;BME280;1033;52.560;13.374;2023-06-19T13:38:05;100712.41;;;30.12;36.53